Time;durP1;ratioP1;P1;durP2;ratioP2;P2;SDS_P1;SDS_P2;PMS_P1;PMS_P2;Temp;Humidity;BMP_temperature;BMP_pressure;BME280_temperature;BME280_humidity;BME280_pressure;Samples;Min_cycle;Max_cycle;Signal;HPM_P1;HPM_P2
2022/08/17 00:00:34;;;;;;;;;;;17.10;95.60;;;;;;4930527;29;19954;-81
2022/08/17 00:03:09;;;;;;;;;;;17.10;95.60;;;;;;4946597;28;20032;-81
2022/08/17 00:05:46;;;;;;;;;;;17.10;96.00;;;;;;4945982;28;19918;-81
2022/08/17 00:08:13;;;;;;;;;;;17.00;96.30;;;;;;4931110;29;19921;-81
2022/08/17 00:10:39;;;;;;;;;;;16.90;96.50;;;;;;4915303;29;19921;-81
2022/08/17 00:13:07;;;;;;;;;;;16.90;97.00;;;;;;4946196;28;20382;-81
2022/08/17 00:15:33;;;;;;;;;;;16.80;97.80;;;;;;4945735;29;19915;-81
2022/08/17 00:17:58;;;;;;;;;;;16.80;97.90;;;;;;4940001;28;19918;-81
2022/08/17 00:20:24;;;;;;;;;;;16.70;98.10;;;;;;4934616;29;19997;-81
2022/08/17 00:23:00;;;;;;;;;;;16.70;98.70;;;;;;4930905;29;19922;-80
2022/08/17 00:25:25;;;;;;;;;;;16.70;98.80;;;;;;4917171;29;19911;-83
2022/08/17 00:27:51;;;;;;;;;;;16.60;99.10;;;;;;4931376;29;20276;-83
2022/08/17 00:30:17;;;;;;;;;;;16.50;99.30;;;;;;4929428;29;19922;-83
2022/08/17 00:32:44;;;;;;;;;;;16.50;99.80;;;;;;4933974;29;19922;-83
2022/08/17 00:35:11;;;;;;;;;;;16.50;99.90;;;;;;4915005;29;20555;-83
2022/08/17 00:37:37;;;;;;;;;;;16.50;99.90;;;;;;4950382;28;19911;-84
2022/08/17 00:40:04;;;;;;;;;;;16.40;99.90;;;;;;4946659;28;20432;-83
2022/08/17 00:42:30;;;;;;;;;;;16.40;99.90;;;;;;4933479;29;19918;-83
2022/08/17 00:44:55;;;;;;;;;;;16.40;99.90;;;;;;4949825;28;19915;-83
2022/08/17 00:47:21;;;;;;;;;;;16.40;99.90;;;;;;4931107;29;20372;-83
2022/08/17 00:49:47;;;;;;;;;;;16.40;99.90;;;;;;4915083;29;19966;-83
2022/08/17 00:52:15;;;;;;;;;;;16.40;99.90;;;;;;4932552;29;20371;-83
2022/08/17 00:54:43;;;;;;;;;;;16.40;99.90;;;;;;4933689;29;19983;-83
2022/08/17 00:57:08;;;;;;;;;;;16.40;99.90;;;;;;4934373;29;19914;-83
2022/08/17 00:59:39;;;;;;;;;;;16.40;99.90;;;;;;4936787;29;19917;-83
2022/08/17 01:02:07;;;;;;;;;;;16.40;99.90;;;;;;4945134;28;20029;-83
2022/08/17 01:04:32;;;;;;;;;;;16.40;99.90;;;;;;4941947;29;19919;-83
2022/08/17 01:06:59;;;;;;;;;;;16.40;99.90;;;;;;4927191;29;19915;-84
2022/08/17 01:09:25;;;;;;;;;;;16.30;99.90;;;;;;4917794;29;19961;-83
2022/08/17 01:11:51;;;;;;;;;;;16.30;99.90;;;;;;4917515;29;20316;-83
2022/08/17 01:14:19;;;;;;;;;;;16.30;99.90;;;;;;4933561;28;19915;-83
2022/08/17 01:16:46;;;;;;;;;;;16.20;99.90;;;;;;4917883;29;19918;-83
2022/08/17 01:19:15;;;;;;;;;;;16.20;99.90;;;;;;4933648;29;19973;-83
2022/08/17 01:21:43;;;;;;;;;;;16.20;99.90;;;;;;4934059;29;20320;-83
2022/08/17 01:24:09;;;;;;;;;;;16.10;99.90;;;;;;4933846;29;19933;-83
2022/08/17 01:26:35;;;;;;;;;;;16.20;99.90;;;;;;4916965;29;20379;-83
2022/08/17 01:29:03;;;;;;;;;;;16.20;99.90;;;;;;4932514;29;19911;-83
2022/08/17 01:31:33;;;;;;;;;;;16.10;99.90;;;;;;4927590;29;19910;-83
2022/08/17 01:34:00;;;;;;;;;;;16.10;99.90;;;;;;4933462;29;19917;-83
2022/08/17 01:36:26;;;;;;;;;;;16.10;99.90;;;;;;4923701;29;19917;-83
2022/08/17 01:38:52;;;;;;;;;;;16.10;99.90;;;;;;4917638;29;19962;-83
2022/08/17 01:41:20;;;;;;;;;;;16.10;99.90;;;;;;4916967;29;19961;-83
2022/08/17 01:43:57;;;;;;;;;;;16.10;99.90;;;;;;4933182;29;19914;-83
2022/08/17 01:46:25;;;;;;;;;;;16.10;99.90;;;;;;4923179;29;19915;-83
2022/08/17 01:48:51;;;;;;;;;;;16.10;99.90;;;;;;4945588;28;19911;-83
2022/08/17 01:51:18;;;;;;;;;;;16.10;99.90;;;;;;4938377;29;19910;-83
2022/08/17 01:53:49;;;;;;;;;;;16.10;99.90;;;;;;4917476;29;19914;-83
2022/08/17 01:56:16;;;;;;;;;;;16.00;99.90;;;;;;4921790;29;19953;-83
2022/08/17 01:58:42;;;;;;;;;;;16.00;99.90;;;;;;4917358;29;19924;-83
2022/08/17 02:01:09;;;;;;;;;;;16.00;99.90;;;;;;4916225;29;19997;-83
2022/08/17 02:03:35;;;;;;;;;;;16.00;99.90;;;;;;4917171;29;19917;-83
2022/08/17 02:06:02;;;;;;;;;;;16.00;99.90;;;;;;4932207;29;19911;-83
2022/08/17 02:08:27;;;;;;;;;;;16.00;99.90;;;;;;4929768;29;20260;-83
2022/08/17 02:10:53;;;;;;;;;;;15.90;99.90;;;;;;4919176;29;19997;-83
2022/08/17 02:13:20;;;;;;;;;;;15.90;99.90;;;;;;4929527;29;20013;-83
2022/08/17 02:15:45;;;;;;;;;;;15.90;99.90;;;;;;4918109;29;19957;-83
2022/08/17 02:18:12;;;;;;;;;;;15.90;99.90;;;;;;4929917;29;19954;-83
2022/08/17 02:20:39;;;;;;;;;;;15.80;99.90;;;;;;4912117;29;19921;-83
2022/08/17 02:23:07;;;;;;;;;;;15.80;99.90;;;;;;4932250;29;19911;-83
2022/08/17 02:25:33;;;;;;;;;;;15.80;99.90;;;;;;4916020;29;20404;-83
2022/08/17 02:27:59;;;;;;;;;;;15.80;99.90;;;;;;4916796;29;19910;-83
2022/08/17 02:30:25;;;;;;;;;;;15.70;99.90;;;;;;4932458;29;19921;-83
2022/08/17 02:32:51;;;;;;;;;;;15.60;99.90;;;;;;4916091;29;19915;-83
2022/08/17 02:35:17;;;;;;;;;;;15.60;99.90;;;;;;4947896;29;20291;-83
2022/08/17 02:37:43;;;;;;;;;;;15.60;99.90;;;;;;4948376;28;19917;-83
2022/08/17 02:40:09;;;;;;;;;;;15.50;99.90;;;;;;4928947;29;20010;-83
2022/08/17 02:42:37;;;;;;;;;;;15.50;99.90;;;;;;4947493;29;20002;-83
2022/08/17 02:45:04;;;;;;;;;;;15.50;99.90;;;;;;4912683;29;19911;-83
2022/08/17 02:47:30;;;;;;;;;;;15.50;99.90;;;;;;4947669;29;19915;-83
2022/08/17 02:49:55;;;;;;;;;;;15.50;99.90;;;;;;4947912;28;19915;-83
2022/08/17 02:52:21;;;;;;;;;;;15.40;99.90;;;;;;4928320;29;19926;-83
2022/08/17 02:54:47;;;;;;;;;;;15.40;99.90;;;;;;4919879;29;19911;-83
2022/08/17 02:57:13;;;;;;;;;;;15.40;99.90;;;;;;4916272;29;19925;-83
2022/08/17 02:59:40;;;;;;;;;;;15.30;99.90;;;;;;4916998;29;19944;-83
2022/08/17 03:02:07;;;;;;;;;;;15.30;99.90;;;;;;4924485;29;19915;-83
2022/08/17 03:04:32;;;;;;;;;;;15.30;99.90;;;;;;4928055;29;19919;-83
2022/08/17 03:06:58;;;;;;;;;;;15.30;99.90;;;;;;4943019;29;20368;-83
2022/08/17 03:09:24;;;;;;;;;;;15.30;99.90;;;;;;4931965;29;19911;-83
2022/08/17 03:11:50;;;;;;;;;;;15.20;99.90;;;;;;4928151;29;19911;-81
2022/08/17 03:14:16;;;;;;;;;;;15.20;99.90;;;;;;4919899;29;19986;-81
2022/08/17 03:16:42;;;;;;;;;;;15.20;99.90;;;;;;4913833;29;19927;-81
2022/08/17 03:19:08;;;;;;;;;;;15.20;99.90;;;;;;4912405;29;20051;-81
2022/08/17 03:21:33;;;;;;;;;;;15.10;99.90;;;;;;4939096;29;19919;-81
2022/08/17 03:23:59;;;;;;;;;;;15.20;99.90;;;;;;4947565;29;19950;-81
2022/08/17 03:26:26;;;;;;;;;;;15.10;99.90;;;;;;4915110;29;19919;-81
2022/08/17 03:28:52;;;;;;;;;;;15.20;99.90;;;;;;4915715;29;19914;-81
2022/08/17 03:31:17;;;;;;;;;;;15.10;99.90;;;;;;4913942;29;19907;-81
2022/08/17 03:33:43;;;;;;;;;;;15.10;99.90;;;;;;4936288;29;19922;-81
2022/08/17 03:36:09;;;;;;;;;;;15.10;99.90;;;;;;4903594;29;19914;-81
2022/08/17 03:38:34;;;;;;;;;;;15.10;99.90;;;;;;4947195;29;20527;-80
2022/08/17 03:41:00;;;;;;;;;;;15.10;99.90;;;;;;4899375;29;19919;-81
2022/08/17 03:43:27;;;;;;;;;;;15.10;99.90;;;;;;4912348;29;19915;-81
2022/08/17 03:57:12;;;;;;;;;;;14.90;99.90;;;;;;4930934;29;19923;-81
2022/08/17 03:59:38;;;;;;;;;;;15.00;99.90;;;;;;4914920;29;19949;-81
2022/08/17 04:02:08;;;;;;;;;;;14.90;99.90;;;;;;4932170;29;19958;-81
2022/08/17 04:04:34;;;;;;;;;;;14.90;99.90;;;;;;4916525;29;19938;-81
2022/08/17 04:07:00;;;;;;;;;;;14.90;99.90;;;;;;4922984;29;19964;-81
2022/08/17 04:09:26;;;;;;;;;;;14.80;99.90;;;;;;4931194;29;19946;-81
2022/08/17 04:11:52;;;;;;;;;;;14.80;99.90;;;;;;4925143;29;19919;-81
2022/08/17 04:14:18;;;;;;;;;;;14.80;99.90;;;;;;4931030;29;19933;-83
2022/08/17 04:16:44;;;;;;;;;;;14.90;99.90;;;;;;4931913;29;20371;-82
2022/08/17 04:19:10;;;;;;;;;;;14.80;99.90;;;;;;4915424;29;19914;-81
2022/08/17 04:21:35;;;;;;;;;;;14.90;99.90;;;;;;4930134;29;19915;-81
2022/08/17 04:24:01;;;;;;;;;;;14.90;99.90;;;;;;4944164;28;19919;-81
2022/08/17 04:26:28;;;;;;;;;;;14.90;99.90;;;;;;4927091;29;19918;-82
2022/08/17 04:28:54;;;;;;;;;;;14.90;99.90;;;;;;4946819;28;19936;-81
2022/08/17 04:31:20;;;;;;;;;;;14.90;99.90;;;;;;4931532;29;20291;-81
2022/08/17 04:33:45;;;;;;;;;;;15.00;99.90;;;;;;4914135;29;19918;-81
2022/08/17 04:36:12;;;;;;;;;;;15.00;99.90;;;;;;4919553;29;19911;-81
2022/08/17 04:38:39;;;;;;;;;;;15.00;99.90;;;;;;4914840;29;19911;-81
2022/08/17 04:43:53;;;;;;;;;;;15.10;99.90;;;;;;4944514;28;19922;-82
2022/08/17 04:46:20;;;;;;;;;;;15.20;99.90;;;;;;4929828;29;19918;-82
2022/08/17 04:48:48;;;;;;;;;;;15.20;99.90;;;;;;4927520;29;20498;-81
2022/08/17 04:51:33;;;;;;;;;;;15.20;99.90;;;;;;4919558;29;19911;-82
2022/08/17 04:54:04;;;;;;;;;;;15.30;99.90;;;;;;4914485;29;20442;-81
2022/08/17 04:56:30;;;;;;;;;;;15.30;99.90;;;;;;4925093;29;19926;-81
2022/08/17 04:58:58;;;;;;;;;;;15.40;99.90;;;;;;4946502;29;20376;-81
2022/08/17 05:01:25;;;;;;;;;;;15.40;99.90;;;;;;4914403;29;19918;-82
2022/08/17 05:03:52;;;;;;;;;;;15.40;99.90;;;;;;4931741;29;19911;-81
2022/08/17 05:06:18;;;;;;;;;;;15.50;99.90;;;;;;4933395;29;20553;-82
2022/08/17 05:08:43;;;;;;;;;;;15.60;99.90;;;;;;4934107;29;20001;-81
2022/08/17 05:11:09;;;;;;;;;;;15.60;99.90;;;;;;4930473;29;19925;-82
2022/08/17 05:13:35;;;;;;;;;;;15.70;99.90;;;;;;4939124;29;19915;-81
2022/08/17 05:16:01;;;;;;;;;;;15.70;99.90;;;;;;4933001;29;19974;-81
2022/08/17 05:18:28;;;;;;;;;;;15.80;99.90;;;;;;4916392;29;19911;-81
2022/08/17 05:20:54;;;;;;;;;;;15.90;99.90;;;;;;4932977;29;19915;-81
2022/08/17 05:23:21;;;;;;;;;;;15.90;99.90;;;;;;4934410;29;20368;-82
2022/08/17 05:25:49;;;;;;;;;;;16.00;99.90;;;;;;4932889;29;20287;-81
2022/08/17 05:28:16;;;;;;;;;;;16.00;99.90;;;;;;4916674;29;19994;-82
2022/08/17 05:30:42;;;;;;;;;;;16.10;99.90;;;;;;4942136;29;19982;-81
2022/08/17 05:33:16;;;;;;;;;;;16.20;99.90;;;;;;4916199;29;20361;-81
2022/08/17 05:35:45;;;;;;;;;;;16.20;99.90;;;;;;4934065;29;20451;-82
2022/08/17 05:38:12;;;;;;;;;;;16.30;99.90;;;;;;4934866;29;19911;-82
2022/08/17 05:40:38;;;;;;;;;;;16.40;99.90;;;;;;4933230;29;19920;-81
2022/08/17 05:43:03;;;;;;;;;;;16.50;99.90;;;;;;4913954;29;19923;-81
2022/08/17 05:45:30;;;;;;;;;;;16.70;99.90;;;;;;4941799;29;20010;-82
2022/08/17 05:47:56;;;;;;;;;;;16.90;99.90;;;;;;4930212;29;19922;-81
2022/08/17 05:50:23;;;;;;;;;;;17.20;99.90;;;;;;4916191;29;19918;-82
2022/08/17 05:52:56;;;;;;;;;;;17.60;99.90;;;;;;4932512;29;19922;-81
2022/08/17 05:55:37;;;;;;;;;;;18.00;99.90;;;;;;4948269;29;19911;-81
2022/08/17 05:58:26;;;;;;;;;;;18.30;99.90;;;;;;4933312;29;20010;-81
2022/08/17 06:00:51;;;;;;;;;;;18.60;99.90;;;;;;4931815;29;19914;-82
2022/08/17 06:03:31;;;;;;;;;;;19.00;99.90;;;;;;4937701;28;19918;-81
2022/08/17 06:06:17;;;;;;;;;;;19.30;99.90;;;;;;4932486;29;19921;-81
2022/08/17 06:08:43;;;;;;;;;;;19.60;99.90;;;;;;4916800;29;20583;-81
2022/08/17 06:11:18;;;;;;;;;;;20.00;99.60;;;;;;4936826;29;19915;-81
2022/08/17 06:13:44;;;;;;;;;;;20.30;98.70;;;;;;4932717;29;20371;-82
2022/08/17 06:16:11;;;;;;;;;;;20.70;97.60;;;;;;4926240;29;19958;-81
2022/08/17 06:18:40;;;;;;;;;;;21.10;96.80;;;;;;4933021;29;19989;-82
2022/08/17 06:21:07;;;;;;;;;;;21.50;95.80;;;;;;4920330;29;19922;-82
2022/08/17 06:23:34;;;;;;;;;;;21.90;94.80;;;;;;4939337;28;19911;-82
2022/08/17 06:26:03;;;;;;;;;;;22.20;94.20;;;;;;4931852;29;19910;-82
2022/08/17 06:28:33;;;;;;;;;;;22.50;93.30;;;;;;4948619;28;19993;-82
2022/08/17 06:31:05;;;;;;;;;;;22.70;93.00;;;;;;4915007;29;19911;-82
2022/08/17 06:33:36;;;;;;;;;;;23.00;91.10;;;;;;4938079;29;20074;-82
2022/08/17 06:36:07;;;;;;;;;;;23.20;91.40;;;;;;4919435;29;19915;-82
2022/08/17 06:38:40;;;;;;;;;;;23.30;91.10;;;;;;4929588;29;19911;-82
2022/08/17 06:41:32;;;;;;;;;;;23.40;90.70;;;;;;4931718;29;19915;-82
2022/08/17 06:44:15;;;;;;;;;;;23.60;89.80;;;;;;4947820;28;19911;-82
2022/08/17 06:46:47;;;;;;;;;;;24.00;88.30;;;;;;4925008;29;19911;-82
2022/08/17 06:49:24;;;;;;;;;;;24.10;86.40;;;;;;4933273;29;19917;-82
2022/08/17 06:51:53;;;;;;;;;;;24.20;87.10;;;;;;4946518;28;19915;-82
2022/08/17 06:54:25;;;;;;;;;;;24.50;85.90;;;;;;4947431;28;19913;-83
2022/08/17 06:57:11;;;;;;;;;;;24.90;85.30;;;;;;4947898;28;20379;-83
2022/08/17 06:59:43;;;;;;;;;;;25.20;79.20;;;;;;4928870;29;19911;-82
2022/08/17 07:02:13;;;;;;;;;;;25.50;76.20;;;;;;4944104;29;19914;-84
2022/08/17 07:04:40;;;;;;;;;;;25.70;77.10;;;;;;4917353;29;20383;-82
2022/08/17 07:09:53;;;;;;;;;;;26.20;74.50;;;;;;4931963;29;19919;-82
2022/08/17 07:12:21;;;;;;;;;;;26.40;74.50;;;;;;4928051;29;19915;-82
2022/08/17 07:15:09;;;;;;;;;;;26.50;73.10;;;;;;4944158;29;19957;-82
2022/08/17 07:17:35;;;;;;;;;;;26.80;73.60;;;;;;4947498;29;19910;-82
2022/08/17 07:20:07;;;;;;;;;;;27.10;72.70;;;;;;4947549;29;19962;-82
2022/08/17 07:22:52;;;;;;;;;;;27.20;71.50;;;;;;4931083;29;19997;-82
2022/08/17 07:25:18;;;;;;;;;;;27.40;71.60;;;;;;4938504;29;19910;-82
2022/08/17 07:27:49;;;;;;;;;;;27.70;68.80;;;;;;4931011;29;20383;-82
2022/08/17 07:30:18;;;;;;;;;;;28.00;69.10;;;;;;4932327;29;19911;-83
2022/08/17 07:32:46;;;;;;;;;;;28.20;67.70;;;;;;4914551;29;19936;-82
2022/08/17 07:35:17;;;;;;;;;;;28.30;63.30;;;;;;4927943;29;20013;-86
2022/08/17 07:37:42;;;;;;;;;;;28.30;60.90;;;;;;4912654;29;19915;-83
2022/08/17 07:40:20;;;;;;;;;;;28.50;62.40;;;;;;4928352;29;19911;-82
2022/08/17 07:43:02;;;;;;;;;;;28.70;60.60;;;;;;4911679;29;20385;-82
2022/08/17 07:48:18;;;;;;;;;;;28.30;58.50;;;;;;4947439;28;20543;-82
2022/08/17 07:50:44;;;;;;;;;;;28.40;58.80;;;;;;4931286;29;19972;-81
2022/08/17 07:53:17;;;;;;;;;;;28.30;58.30;;;;;;4946709;28;20372;-81
2022/08/17 07:55:44;;;;;;;;;;;28.30;57.80;;;;;;4946310;28;19915;-83
2022/08/17 07:58:14;;;;;;;;;;;28.40;58.00;;;;;;4931320;29;19911;-82
2022/08/17 08:00:40;;;;;;;;;;;28.60;58.70;;;;;;4915484;29;19914;-82
2022/08/17 08:03:30;;;;;;;;;;;28.70;58.40;;;;;;4930680;29;20036;-81
2022/08/17 08:06:00;;;;;;;;;;;29.00;56.90;;;;;;4917379;29;19937;-81
2022/08/17 08:08:26;;;;;;;;;;;29.10;56.20;;;;;;4915155;29;20027;-82
2022/08/17 08:11:07;;;;;;;;;;;29.10;56.70;;;;;;4946287;28;20387;-82
2022/08/17 08:13:33;;;;;;;;;;;29.10;56.90;;;;;;4946911;28;19981;-82
2022/08/17 08:16:12;;;;;;;;;;;29.00;56.00;;;;;;4930261;29;19911;-81
2022/08/17 08:18:43;;;;;;;;;;;29.00;57.80;;;;;;4932072;29;19911;-83
2022/08/17 08:21:12;;;;;;;;;;;29.00;57.20;;;;;;4927451;29;20012;-82
2022/08/17 08:23:45;;;;;;;;;;;29.00;57.50;;;;;;4915193;29;19911;-81
2022/08/17 08:26:29;;;;;;;;;;;28.80;56.60;;;;;;4931646;29;19918;-82
2022/08/17 08:29:04;;;;;;;;;;;28.90;57.40;;;;;;4931137;29;20299;-81
2022/08/17 08:31:36;;;;;;;;;;;28.70;57.70;;;;;;4931698;29;20404;-82
2022/08/17 08:34:17;;;;;;;;;;;28.70;57.50;;;;;;4946729;28;19915;-83
2022/08/17 08:36:54;;;;;;;;;;;28.50;57.60;;;;;;4923964;29;19914;-83
2022/08/17 08:39:29;;;;;;;;;;;28.30;58.80;;;;;;4918064;29;19911;-82
2022/08/17 08:41:58;;;;;;;;;;;28.30;58.80;;;;;;4935478;29;20388;-82
2022/08/17 08:44:34;;;;;;;;;;;28.30;57.40;;;;;;4935441;29;20001;-82
2022/08/17 08:47:17;;;;;;;;;;;28.30;58.20;;;;;;4950428;28;19910;-82
2022/08/17 08:49:45;;;;;;;;;;;28.40;57.30;;;;;;4934308;29;20571;-82
2022/08/17 08:52:23;;;;;;;;;;;28.50;58.10;;;;;;4932231;29;19994;-83
2022/08/17 08:55:01;;;;;;;;;;;28.60;57.70;;;;;;4926565;29;19915;-84
2022/08/17 08:57:32;;;;;;;;;;;28.60;56.70;;;;;;4935920;29;19926;-81
2022/08/17 09:00:16;;;;;;;;;;;28.50;56.10;;;;;;4935646;29;19910;-82
2022/08/17 09:02:44;;;;;;;;;;;28.50;58.00;;;;;;4949936;29;19915;-83
2022/08/17 09:05:24;;;;;;;;;;;28.50;58.60;;;;;;4950242;29;20295;-82
2022/08/17 09:07:59;;;;;;;;;;;28.50;56.10;;;;;;4916936;29;19910;-82
2022/08/17 09:10:44;;;;;;;;;;;28.40;55.10;;;;;;4917393;29;20009;-81
2022/08/17 09:13:15;;;;;;;;;;;28.40;55.60;;;;;;4934203;29;19915;-82
2022/08/17 09:15:43;;;;;;;;;;;28.30;55.50;;;;;;4933936;29;19924;-81
2022/08/17 09:18:14;;;;;;;;;;;28.30;57.70;;;;;;4935342;29;20016;-81
2022/08/17 09:20:54;;;;;;;;;;;28.30;57.00;;;;;;4950141;28;19954;-81
2022/08/17 09:23:33;;;;;;;;;;;28.40;55.10;;;;;;4918317;29;20025;-83
2022/08/17 09:26:08;;;;;;;;;;;28.30;55.30;;;;;;4950101;29;20020;-83
2022/08/17 09:28:38;;;;;;;;;;;28.30;53.20;;;;;;4935277;29;20061;-82
2022/08/17 09:31:08;;;;;;;;;;;28.30;56.60;;;;;;4934611;29;19914;-82
2022/08/17 09:33:38;;;;;;;;;;;28.40;57.20;;;;;;4933876;29;19967;-83
2022/08/17 09:36:08;;;;;;;;;;;28.50;55.80;;;;;;4917805;29;20646;-84
2022/08/17 09:38:40;;;;;;;;;;;28.50;55.70;;;;;;4918126;29;20531;-84
2022/08/17 09:41:06;;;;;;;;;;;28.50;55.00;;;;;;4933809;29;19918;-81
2022/08/17 09:43:42;;;;;;;;;;;28.60;55.30;;;;;;4930858;29;19915;-82
2022/08/17 09:46:13;;;;;;;;;;;28.60;54.20;;;;;;4938087;29;19936;-82
2022/08/17 09:48:42;;;;;;;;;;;28.50;55.00;;;;;;4949677;28;20352;-82
2022/08/17 09:51:12;;;;;;;;;;;28.50;54.30;;;;;;4945170;28;19945;-82
2022/08/17 09:53:38;;;;;;;;;;;28.60;55.50;;;;;;4930360;29;19982;-82
2022/08/17 09:56:04;;;;;;;;;;;28.60;54.70;;;;;;4946082;28;20503;-82
2022/08/17 09:58:37;;;;;;;;;;;28.60;53.30;;;;;;4915884;29;19911;-83
2022/08/17 10:01:12;;;;;;;;;;;28.70;54.20;;;;;;4949202;29;19914;-83
2022/08/17 10:03:54;;;;;;;;;;;28.70;52.30;;;;;;4939805;28;19911;-82
2022/08/17 10:06:29;;;;;;;;;;;28.70;53.50;;;;;;4933102;29;20291;-82
2022/08/17 10:09:07;;;;;;;;;;;28.70;52.40;;;;;;4935139;29;19911;-82
2022/08/17 10:14:42;;;;;;;;;;;28.70;52.70;;;;;;4949025;28;19965;-82
2022/08/17 10:17:19;;;;;;;;;;;28.90;51.70;;;;;;4917876;29;19910;-83
2022/08/17 10:19:48;;;;;;;;;;;28.80;52.20;;;;;;4917705;29;20292;-82
2022/08/17 10:28:07;;;;;;;;;;;29.00;54.40;;;;;;4934174;29;20431;-82
2022/08/17 10:30:36;;;;;;;;;;;29.10;53.90;;;;;;4929704;29;19921;-82
2022/08/17 10:33:13;;;;;;;;;;;29.10;52.60;;;;;;4929678;29;20388;-85
2022/08/17 10:35:48;;;;;;;;;;;29.10;51.90;;;;;;4930085;29;20005;-82
2022/08/17 10:38:32;;;;;;;;;;;29.20;52.90;;;;;;4929867;29;20427;-82
2022/08/17 10:41:13;;;;;;;;;;;29.30;51.70;;;;;;4938849;29;19922;-82
2022/08/17 10:43:40;;;;;;;;;;;29.30;52.20;;;;;;4913858;29;19911;-83
2022/08/17 10:46:18;;;;;;;;;;;29.40;52.50;;;;;;4936415;29;19918;-82
2022/08/17 10:48:46;;;;;;;;;;;29.50;53.20;;;;;;4948646;29;20607;-81
2022/08/17 10:51:33;;;;;;;;;;;29.60;52.70;;;;;;4933221;29;20010;-82
2022/08/17 10:54:00;;;;;;;;;;;29.70;52.60;;;;;;4933708;29;20034;-84
2022/08/17 10:56:41;;;;;;;;;;;29.80;50.20;;;;;;4930078;29;19919;-83
2022/08/17 10:59:07;;;;;;;;;;;29.80;47.60;;;;;;4932761;29;19911;-82
2022/08/17 11:01:32;;;;;;;;;;;29.60;46.20;;;;;;4931920;29;20030;-82
2022/08/17 11:04:24;;;;;;;;;;;29.40;47.50;;;;;;4932110;29;19986;-82
2022/08/17 11:07:01;;;;;;;;;;;29.30;48.20;;;;;;4899172;29;20043;-82
2022/08/17 11:09:33;;;;;;;;;;;29.30;48.00;;;;;;4897431;29;19916;-82
2022/08/17 11:12:05;;;;;;;;;;;29.40;49.50;;;;;;4940294;29;19918;-82
2022/08/17 11:14:31;;;;;;;;;;;29.50;47.60;;;;;;4928855;29;20407;-82
2022/08/17 11:17:00;;;;;;;;;;;29.60;47.80;;;;;;4924307;29;19910;-82
2022/08/17 11:19:31;;;;;;;;;;;29.70;47.50;;;;;;4947860;29;19918;-84
2022/08/17 11:22:12;;;;;;;;;;;29.60;47.10;;;;;;4931555;29;20402;-82
2022/08/17 11:24:39;;;;;;;;;;;29.60;48.70;;;;;;4932906;29;20395;-84
2022/08/17 11:27:24;;;;;;;;;;;29.70;47.20;;;;;;4932041;29;19906;-82
2022/08/17 11:29:53;;;;;;;;;;;29.70;48.90;;;;;;4928954;29;19918;-82
2022/08/17 11:32:30;;;;;;;;;;;29.70;48.10;;;;;;4945290;29;19949;-83
2022/08/17 11:35:10;;;;;;;;;;;29.80;47.70;;;;;;4927968;29;19923;-83
2022/08/17 11:37:51;;;;;;;;;;;29.80;48.10;;;;;;4943969;28;20022;-84
2022/08/17 11:40:36;;;;;;;;;;;30.00;49.50;;;;;;4913303;29;19945;-84
2022/08/17 11:43:07;;;;;;;;;;;30.20;48.90;;;;;;4947358;29;19962;-82
2022/08/17 11:45:35;;;;;;;;;;;30.40;50.00;;;;;;4914912;29;19925;-83
2022/08/17 11:53:50;;;;;;;;;;;30.70;47.50;;;;;;4933101;29;19910;-84
2022/08/17 11:56:30;;;;;;;;;;;30.70;45.40;;;;;;4936983;29;19915;-82
2022/08/17 11:58:57;;;;;;;;;;;30.50;45.10;;;;;;4928420;29;20360;-83
2022/08/17 12:01:27;;;;;;;;;;;30.40;45.00;;;;;;4930886;29;20379;-84
2022/08/17 12:03:57;;;;;;;;;;;30.30;45.90;;;;;;4947010;28;19983;-83
2022/08/17 12:06:29;;;;;;;;;;;30.20;46.80;;;;;;4915321;29;20339;-84
2022/08/17 12:09:04;;;;;;;;;;;30.30;48.10;;;;;;4932325;29;19917;-82
2022/08/17 12:11:36;;;;;;;;;;;30.40;46.80;;;;;;4931569;29;19995;-82
2022/08/17 12:14:03;;;;;;;;;;;30.60;46.50;;;;;;4927506;29;20276;-83
2022/08/17 12:16:29;;;;;;;;;;;30.70;48.80;;;;;;4937763;29;19918;-83
2022/08/17 12:19:01;;;;;;;;;;;30.90;47.70;;;;;;4931362;29;19915;-82
2022/08/17 12:21:39;;;;;;;;;;;31.00;44.30;;;;;;4914734;29;19914;-82
2022/08/17 12:24:08;;;;;;;;;;;31.00;44.80;;;;;;4947078;28;19981;-82
2022/08/17 12:26:34;;;;;;;;;;;31.10;46.70;;;;;;4931510;29;19911;-82
2022/08/17 12:29:02;;;;;;;;;;;31.20;48.00;;;;;;4927899;29;19911;-82
2022/08/17 12:31:30;;;;;;;;;;;31.20;46.70;;;;;;4934546;29;19922;-84
2022/08/17 12:33:56;;;;;;;;;;;31.20;47.80;;;;;;4939673;28;19914;-83
2022/08/17 12:36:23;;;;;;;;;;;31.30;46.70;;;;;;4945762;28;19910;-83
2022/08/17 12:39:02;;;;;;;;;;;31.40;47.70;;;;;;4930583;29;20347;-82
2022/08/17 12:41:33;;;;;;;;;;;31.60;48.10;;;;;;4931109;29;19914;-83
2022/08/17 12:44:02;;;;;;;;;;;31.80;48.10;;;;;;4921841;29;19911;-82
2022/08/17 12:46:29;;;;;;;;;;;32.10;46.60;;;;;;4933455;29;19911;-82
2022/08/17 12:49:09;;;;;;;;;;;32.30;42.20;;;;;;4930971;29;19925;-82
2022/08/17 12:51:35;;;;;;;;;;;32.40;43.20;;;;;;4913496;29;19962;-82
2022/08/17 12:54:00;;;;;;;;;;;32.60;45.50;;;;;;4947005;29;19915;-84
2022/08/17 12:56:28;;;;;;;;;;;32.70;45.10;;;;;;4944648;29;19986;-82
2022/08/17 12:58:55;;;;;;;;;;;32.80;44.80;;;;;;4927588;29;19919;-83
2022/08/17 13:01:22;;;;;;;;;;;32.80;40.00;;;;;;4936657;29;20443;-82
2022/08/17 13:03:49;;;;;;;;;;;32.60;39.50;;;;;;4921331;29;19919;-82
2022/08/17 13:06:30;;;;;;;;;;;32.50;41.40;;;;;;4929891;29;19914;-84
2022/08/17 13:08:55;;;;;;;;;;;32.50;41.70;;;;;;4914598;29;20009;-83
2022/08/17 13:11:23;;;;;;;;;;;32.50;41.80;;;;;;4914347;29;20002;-85
2022/08/17 13:13:54;;;;;;;;;;;32.50;43.80;;;;;;4931862;29;19918;-82
2022/08/17 13:16:25;;;;;;;;;;;32.60;42.00;;;;;;4920139;29;20035;-82
2022/08/17 13:19:05;;;;;;;;;;;32.50;41.20;;;;;;4938175;28;19911;-82
2022/08/17 13:21:32;;;;;;;;;;;32.60;40.40;;;;;;4930144;29;19915;-82
2022/08/17 13:23:59;;;;;;;;;;;32.60;39.10;;;;;;4914821;29;19965;-85
2022/08/17 13:26:31;;;;;;;;;;;32.70;38.50;;;;;;4932552;29;19914;-82
2022/08/17 13:28:57;;;;;;;;;;;32.60;40.70;;;;;;4949870;29;19911;-82
2022/08/17 13:31:31;;;;;;;;;;;32.60;41.80;;;;;;4946239;29;19943;-81
2022/08/17 13:34:17;;;;;;;;;;;32.60;41.60;;;;;;4928088;29;19917;-82
2022/08/17 13:36:43;;;;;;;;;;;32.60;40.90;;;;;;4935002;29;19919;-85
2022/08/17 13:39:15;;;;;;;;;;;32.70;41.20;;;;;;4935122;29;20440;-82
2022/08/17 13:41:41;;;;;;;;;;;32.60;41.10;;;;;;4934478;29;19915;-82
2022/08/17 13:44:27;;;;;;;;;;;32.60;41.60;;;;;;4933530;29;20001;-83
2022/08/17 13:46:52;;;;;;;;;;;32.50;39.70;;;;;;4930930;29;19914;-83
2022/08/17 13:49:19;;;;;;;;;;;32.20;40.10;;;;;;4949491;28;19906;-82
2022/08/17 13:51:46;;;;;;;;;;;31.90;40.90;;;;;;4932848;29;19917;-81
2022/08/17 13:54:32;;;;;;;;;;;31.70;41.90;;;;;;4917341;29;19917;-82
2022/08/17 13:57:00;;;;;;;;;;;31.60;42.90;;;;;;4933095;29;20268;-82
2022/08/17 13:59:26;;;;;;;;;;;31.50;43.30;;;;;;4934514;29;19910;-82
2022/08/17 14:01:52;;;;;;;;;;;31.40;43.70;;;;;;4933858;29;20014;-82
2022/08/17 14:04:26;;;;;;;;;;;31.30;43.20;;;;;;4918261;29;19914;-81
2022/08/17 14:06:57;;;;;;;;;;;31.30;43.80;;;;;;4928785;29;19919;-82
2022/08/17 14:09:25;;;;;;;;;;;31.20;45.10;;;;;;4949347;29;19923;-82
2022/08/17 14:11:51;;;;;;;;;;;31.30;43.60;;;;;;4943743;28;19917;-82
2022/08/17 14:14:17;;;;;;;;;;;31.20;41.70;;;;;;4925347;29;19907;-83
2022/08/17 14:16:43;;;;;;;;;;;31.20;43.10;;;;;;4927411;29;20013;-82
2022/08/17 14:19:10;;;;;;;;;;;31.30;45.00;;;;;;4929695;29;20324;-82
2022/08/17 14:21:36;;;;;;;;;;;31.50;44.30;;;;;;4925784;29;19915;-82
2022/08/17 14:24:02;;;;;;;;;;;31.70;44.40;;;;;;4934355;29;19911;-83
2022/08/17 14:26:27;;;;;;;;;;;31.80;44.80;;;;;;4945132;28;19922;-85
2022/08/17 14:28:53;;;;;;;;;;;31.80;45.40;;;;;;4929865;29;19915;-82
2022/08/17 14:31:19;;;;;;;;;;;31.70;44.60;;;;;;4932342;29;19915;-82
2022/08/17 14:33:45;;;;;;;;;;;31.60;44.60;;;;;;4933988;29;19911;-82
2022/08/17 14:36:10;;;;;;;;;;;31.40;43.70;;;;;;4915801;29;19914;-82
2022/08/17 14:38:36;;;;;;;;;;;31.20;45.30;;;;;;4929484;29;19915;-82
2022/08/17 14:41:03;;;;;;;;;;;31.00;44.50;;;;;;4937301;29;20015;-83
2022/08/17 14:43:33;;;;;;;;;;;30.80;46.50;;;;;;4948901;28;19962;-83
2022/08/17 14:45:59;;;;;;;;;;;30.70;47.10;;;;;;4931976;29;19910;-82
2022/08/17 14:48:24;;;;;;;;;;;30.60;47.70;;;;;;4916676;29;20382;-84
2022/08/17 14:50:50;;;;;;;;;;;30.60;46.40;;;;;;4916192;29;20017;-82
2022/08/17 14:53:16;;;;;;;;;;;30.60;47.00;;;;;;4948378;28;19921;-82
2022/08/17 14:55:44;;;;;;;;;;;30.60;47.50;;;;;;4932789;29;20339;-81
2022/08/17 14:58:10;;;;;;;;;;;30.60;48.10;;;;;;4932730;29;20458;-82
2022/08/17 15:00:36;;;;;;;;;;;30.60;48.00;;;;;;4933160;29;20017;-82
2022/08/17 15:03:03;;;;;;;;;;;30.60;48.70;;;;;;4932118;29;20001;-82
2022/08/17 15:05:32;;;;;;;;;;;30.40;48.80;;;;;;4931544;29;20519;-81